createdAt,value
2023-02-19T00:02:07.866Z,4.40
2023-02-19T00:04:34.720Z,4.15
2023-02-19T00:07:01.664Z,3.35
2023-02-19T00:09:28.527Z,3.95
2023-02-19T00:11:55.256Z,4.20
2023-02-19T00:14:22.442Z,4.28
2023-02-19T00:16:49.516Z,3.85
2023-02-19T00:19:19.792Z,4.32
2023-02-19T00:21:47.775Z,3.97
2023-02-19T00:24:15.487Z,4.00
2023-02-19T00:26:44.880Z,4.38
2023-02-19T00:29:21.915Z,4.07
2023-02-19T00:31:49.511Z,4.80
2023-02-19T00:34:16.470Z,4.90
2023-02-19T00:36:44.360Z,4.93
2023-02-19T00:39:15.719Z,4.35
2023-02-19T00:41:43.187Z,4.53
2023-02-19T00:44:12.029Z,4.97
2023-02-19T00:46:46.408Z,5.30
2023-02-19T00:49:22.738Z,5.55
2023-02-19T00:51:52.394Z,4.57
2023-02-19T00:54:20.348Z,4.50
2023-02-19T00:56:47.283Z,5.00
2023-02-19T00:59:15.061Z,4.32
2023-02-19T01:01:44.697Z,4.82
2023-02-19T01:04:12.504Z,4.50
2023-02-19T01:06:39.314Z,4.72
2023-02-19T01:09:07.701Z,5.05
2023-02-19T01:11:34.823Z,4.38
2023-02-19T01:14:03.541Z,5.53
2023-02-19T01:16:31.061Z,5.22
2023-02-19T01:18:58.159Z,5.35
2023-02-19T01:21:27.736Z,4.70
2023-02-19T01:23:55.516Z,5.35
2023-02-19T01:26:30.992Z,5.10
2023-02-19T01:29:01.055Z,4.80
2023-02-19T01:31:29.185Z,5.43
2023-02-19T01:34:00.304Z,5.53
2023-02-19T01:36:29.163Z,4.28
2023-02-19T01:38:56.054Z,4.22
2023-02-19T01:41:25.657Z,4.57
2023-02-19T01:44:11.317Z,4.43
2023-02-19T01:46:40.725Z,4.45
2023-02-19T01:49:25.949Z,5.22
2023-02-19T01:52:04.417Z,3.33
2023-02-19T01:54:37.490Z,3.50
2023-02-19T01:57:11.157Z,3.55
2023-02-19T01:59:38.509Z,4.07
2023-02-19T02:02:06.547Z,3.30
2023-02-19T02:04:35.139Z,3.10
2023-02-19T02:07:26.377Z,3.28
2023-02-19T02:10:12.598Z,4.05
2023-02-19T02:12:39.471Z,3.80
2023-02-19T02:15:07.641Z,2.92
2023-02-19T02:18:24.967Z,2.95
2023-02-19T02:21:14.062Z,2.45
2023-02-19T02:24:24.844Z,3.05
2023-02-19T02:27:26.657Z,2.70
2023-02-19T02:30:32.159Z,2.72
2023-02-19T02:33:32.265Z,3.63
2023-02-19T02:36:14.673Z,2.60
2023-02-19T02:38:46.201Z,3.40
2023-02-19T02:41:15.608Z,3.40
2023-02-19T02:43:42.573Z,3.63
2023-02-19T02:46:27.897Z,2.80
2023-02-19T02:49:11.678Z,2.63
2023-02-19T02:51:49.442Z,2.78
2023-02-19T02:54:53.211Z,3.08
2023-02-19T02:57:22.260Z,3.20
2023-02-19T02:59:53.524Z,3.17
2023-02-19T03:02:30.043Z,3.65
2023-02-19T03:05:41.322Z,3.53
2023-02-19T03:08:23.900Z,3.25
2023-02-19T03:10:59.402Z,4.00
2023-02-19T03:13:56.833Z,3.70
2023-02-19T03:16:48.768Z,3.80
2023-02-19T03:19:20.273Z,3.53
2023-02-19T03:22:10.737Z,3.85
2023-02-19T03:25:21.600Z,4.07
2023-02-19T03:27:51.489Z,3.25
2023-02-19T03:30:25.291Z,3.92
2023-02-19T03:33:00.258Z,3.40
2023-02-19T03:35:33.555Z,3.10
2023-02-19T03:38:23.133Z,3.35
2023-02-19T03:41:16.870Z,3.78
2023-02-19T03:44:24.735Z,3.00
2023-02-19T03:47:10.156Z,3.08
2023-02-19T03:50:01.430Z,4.25
2023-02-19T03:52:54.365Z,3.90
2023-02-19T03:55:59.333Z,3.05
2023-02-19T03:59:00.260Z,3.05
2023-02-19T04:02:10.686Z,3.30
2023-02-19T04:05:14.278Z,3.50
2023-02-19T04:07:47.899Z,3.88
2023-02-19T04:10:19.158Z,3.60
2023-02-19T04:13:09.154Z,3.53
2023-02-19T04:15:40.021Z,3.30
2023-02-19T04:18:16.768Z,3.20
2023-02-19T04:20:48.078Z,3.00
2023-02-19T04:23:22.339Z,3.88
2023-02-19T04:25:54.977Z,3.78
2023-02-19T04:28:22.184Z,3.42
2023-02-19T04:30:49.258Z,3.45
2023-02-19T04:33:16.245Z,2.90
2023-02-19T04:35:43.128Z,3.50
2023-02-19T04:38:10.182Z,2.75
2023-02-19T04:40:37.011Z,3.20
2023-02-19T04:43:03.839Z,3.50
2023-02-19T04:45:30.751Z,4.15
2023-02-19T04:47:58.808Z,3.50
2023-02-19T04:50:26.028Z,3.30
2023-02-19T04:52:52.793Z,2.85
2023-02-19T04:55:19.712Z,3.28
2023-02-19T04:57:46.544Z,3.50
2023-02-19T05:00:13.851Z,4.13
2023-02-19T05:02:40.806Z,3.53
2023-02-19T05:05:08.088Z,3.15
2023-02-19T05:07:34.927Z,3.92
2023-02-19T05:10:01.798Z,3.08
2023-02-19T05:12:31.091Z,3.30
2023-02-19T05:14:58.104Z,2.80
2023-02-19T05:17:24.947Z,3.42
2023-02-19T05:19:51.812Z,2.97
2023-02-19T05:22:18.659Z,2.72
2023-02-19T05:24:45.469Z,3.05
2023-02-19T05:27:12.236Z,2.92
2023-02-19T05:29:39.045Z,2.38
2023-02-19T05:32:05.899Z,3.25
2023-02-19T05:34:32.858Z,3.22
2023-02-19T05:36:59.776Z,3.05
2023-02-19T05:39:26.554Z,2.53
2023-02-19T05:41:53.607Z,3.47
2023-02-19T05:44:20.782Z,3.35
2023-02-19T05:46:47.644Z,3.13
2023-02-19T05:49:14.436Z,3.22
2023-02-19T05:51:41.275Z,3.45
2023-02-19T05:54:08.110Z,3.40
2023-02-19T05:56:42.045Z,3.13
2023-02-19T05:59:21.526Z,3.85
2023-02-19T06:01:50.708Z,3.15
2023-02-19T06:04:19.954Z,3.50
2023-02-19T06:06:48.428Z,3.70
2023-02-19T06:09:15.398Z,3.60
2023-02-19T06:11:43.529Z,3.35
2023-02-19T06:14:13.903Z,3.03
2023-02-19T06:16:41.775Z,3.35
2023-02-19T06:19:08.903Z,3.30
2023-02-19T06:21:36.249Z,3.38
2023-02-19T06:24:09.309Z,3.70
2023-02-19T06:26:36.821Z,3.58
2023-02-19T06:29:04.255Z,3.85
2023-02-19T06:31:31.166Z,3.50
2023-02-19T06:33:58.226Z,4.00
2023-02-19T06:36:25.385Z,3.95
2023-02-19T06:38:52.437Z,3.63
2023-02-19T06:41:19.903Z,3.90
2023-02-19T06:43:47.086Z,3.67
2023-02-19T06:46:14.387Z,4.10
2023-02-19T06:48:44.121Z,3.78
2023-02-19T06:51:22.590Z,3.63
2023-02-19T06:53:49.893Z,3.60
2023-02-19T06:56:31.289Z,4.22
2023-02-19T06:59:04.078Z,3.85
2023-02-19T07:01:33.839Z,3.75
2023-02-19T07:04:00.917Z,3.97
2023-02-19T07:06:29.237Z,4.32
2023-02-19T07:08:58.045Z,3.92
2023-02-19T07:11:26.212Z,4.80
2023-02-19T07:14:01.302Z,4.45
2023-02-19T07:16:28.661Z,3.78
2023-02-19T07:19:00.386Z,4.32
2023-02-19T07:21:28.713Z,4.43
2023-02-19T07:23:55.932Z,4.75
2023-02-19T07:26:23.721Z,5.32
2023-02-19T07:28:52.455Z,4.90
2023-02-19T07:31:24.006Z,4.90
2023-02-19T07:33:51.767Z,5.00
2023-02-19T07:36:20.655Z,5.20
2023-02-19T07:38:47.761Z,4.40
2023-02-19T07:41:14.654Z,4.55
2023-02-19T07:43:41.544Z,4.57
2023-02-19T07:46:13.842Z,5.45
2023-02-19T07:48:43.031Z,5.13
2023-02-19T07:51:16.617Z,4.60
2023-02-19T07:53:43.464Z,4.60
2023-02-19T07:56:12.730Z,5.35
2023-02-19T07:58:40.878Z,5.70
2023-02-19T08:01:17.112Z,5.43
2023-02-19T08:03:44.825Z,5.10
2023-02-19T08:06:12.333Z,4.35
2023-02-19T08:08:40.021Z,4.85
2023-02-19T08:11:26.064Z,4.93
2023-02-19T08:13:53.927Z,4.90
2023-02-19T08:16:36.846Z,4.70
2023-02-19T08:19:07.902Z,4.60
2023-02-19T08:21:34.652Z,4.50
2023-02-19T08:24:01.513Z,4.40
2023-02-19T08:26:28.378Z,4.70
2023-02-19T08:28:55.158Z,4.72
2023-02-19T08:31:22.121Z,4.60
2023-02-19T08:33:49.161Z,5.40
2023-02-19T08:36:15.969Z,4.72
2023-02-19T08:38:42.769Z,5.57
2023-02-19T08:41:14.123Z,5.28
2023-02-19T08:43:42.455Z,5.18
2023-02-19T08:46:11.556Z,5.55
2023-02-19T08:48:39.998Z,6.05
2023-02-19T08:51:11.636Z,5.28
2023-02-19T08:53:40.368Z,5.43
2023-02-19T08:56:09.051Z,5.53
2023-02-19T08:58:37.383Z,5.43
2023-02-19T09:01:11.381Z,5.65
2023-02-19T09:03:38.424Z,5.05
2023-02-19T09:06:05.489Z,5.20
2023-02-19T09:08:32.368Z,6.03
2023-02-19T09:11:04.904Z,5.13
2023-02-19T09:13:31.799Z,4.70
2023-02-19T09:15:58.774Z,5.57
2023-02-19T09:18:26.816Z,5.15
2023-02-19T09:20:53.680Z,4.80
2023-02-19T09:23:20.586Z,5.28
2023-02-19T09:25:47.477Z,4.53
2023-02-19T09:28:14.379Z,3.97
2023-02-19T09:30:41.271Z,4.30
2023-02-19T09:33:08.045Z,4.32
2023-02-19T09:35:39.128Z,4.10
2023-02-19T09:38:06.020Z,4.07
2023-02-19T09:40:35.533Z,3.63
2023-02-19T09:43:07.602Z,4.35
2023-02-19T09:45:37.896Z,3.78
2023-02-19T09:48:06.183Z,3.83
2023-02-19T09:50:41.078Z,4.38
2023-02-19T09:53:41.220Z,3.40
2023-02-19T09:56:09.293Z,3.50
2023-02-19T09:58:48.588Z,3.20
2023-02-19T10:01:16.303Z,2.88
2023-02-19T10:03:49.035Z,2.53
2023-02-19T10:06:23.670Z,3.00
2023-02-19T10:09:15.459Z,3.00
2023-02-19T10:11:42.750Z,2.97
2023-02-19T10:14:36.956Z,2.72
2023-02-19T10:17:06.723Z,2.78
2023-02-19T10:19:36.260Z,2.88
2023-02-19T10:22:04.656Z,3.00
2023-02-19T10:24:31.894Z,3.25
2023-02-19T10:26:58.922Z,2.85
2023-02-19T10:29:27.148Z,2.47
2023-02-19T10:32:18.153Z,2.95
2023-02-19T10:34:45.101Z,1.85
2023-02-19T10:37:18.572Z,1.77
2023-02-19T10:39:50.696Z,1.98
2023-02-19T10:42:22.291Z,2.10
2023-02-19T10:44:58.658Z,1.90
2023-02-19T10:47:28.647Z,1.95
2023-02-19T10:50:02.097Z,2.10
2023-02-19T10:52:36.131Z,2.55
2023-02-19T10:55:31.678Z,2.22
2023-02-19T10:58:15.110Z,2.22
2023-02-19T11:00:41.954Z,2.42
2023-02-19T11:03:21.166Z,2.03
2023-02-19T11:06:01.103Z,1.95
2023-02-19T11:08:30.228Z,2.00
2023-02-19T11:10:57.153Z,2.03
2023-02-19T11:13:38.023Z,1.65
2023-02-19T11:16:05.516Z,1.65
2023-02-19T11:18:34.897Z,1.73
2023-02-19T11:21:05.488Z,1.75
2023-02-19T11:23:36.557Z,1.80
2023-02-19T11:26:16.470Z,2.10
2023-02-19T11:28:44.422Z,1.80
2023-02-19T11:31:20.180Z,1.98
2023-02-19T11:34:15.734Z,1.85
2023-02-19T11:36:43.006Z,2.40
2023-02-19T11:39:16.027Z,2.08
2023-02-19T11:42:12.004Z,2.38
2023-02-19T11:45:28.474Z,1.83
2023-02-19T11:48:11.891Z,1.80
2023-02-19T11:51:15.793Z,1.40
2023-02-19T11:54:30.263Z,1.35
2023-02-19T11:57:17.964Z,1.88
2023-02-19T12:00:11.890Z,1.70
2023-02-19T12:02:56.088Z,1.92
2023-02-19T12:06:16.694Z,1.70
2023-02-19T12:08:55.066Z,2.25
2023-02-19T12:11:35.357Z,2.00
2023-02-19T12:14:25.595Z,2.30
2023-02-19T12:17:00.092Z,2.30
2023-02-19T12:20:01.559Z,2.20
2023-02-19T12:22:36.298Z,1.83
2023-02-19T12:25:28.460Z,2.00
2023-02-19T12:28:20.074Z,1.80
2023-02-19T12:31:06.288Z,1.77
2023-02-19T12:33:59.681Z,1.88
2023-02-19T12:37:20.662Z,2.13
2023-02-19T12:39:54.776Z,2.00
2023-02-19T12:42:52.942Z,2.47
2023-02-19T12:45:36.791Z,2.03
2023-02-19T12:48:29.675Z,3.00
2023-02-19T12:51:22.638Z,2.22
2023-02-19T12:54:02.232Z,1.90
2023-02-19T12:56:47.744Z,1.90
2023-02-19T12:59:35.694Z,2.00
2023-02-19T13:02:23.681Z,2.08
2023-02-19T13:05:22.829Z,2.00
2023-02-19T13:08:12.864Z,2.10
2023-02-19T13:11:01.002Z,2.17
2023-02-19T13:13:41.948Z,1.73
2023-02-19T13:16:19.599Z,1.88
2023-02-19T13:18:50.678Z,1.80
2023-02-19T13:21:40.679Z,1.52
2023-02-19T13:24:15.696Z,1.73
2023-02-19T13:27:32.441Z,1.90
2023-02-19T13:30:15.913Z,1.85
2023-02-19T13:33:00.707Z,2.10
2023-02-19T13:36:06.077Z,1.75
2023-02-19T13:38:44.754Z,1.85
2023-02-19T13:41:28.453Z,1.80
2023-02-19T13:44:06.132Z,1.83
2023-02-19T13:46:43.529Z,1.73
2023-02-19T13:49:28.382Z,1.50
2023-02-19T13:52:03.602Z,1.80
2023-02-19T13:54:36.187Z,1.60
2023-02-19T13:57:28.604Z,2.13
2023-02-19T13:59:58.265Z,1.35
2023-02-19T14:02:32.139Z,1.50
2023-02-19T14:05:10.988Z,1.45
2023-02-19T14:07:48.688Z,1.38
2023-02-19T14:10:54.211Z,1.58
2023-02-19T14:13:55.757Z,3.33
2023-02-19T14:16:33.201Z,2.10
2023-02-19T14:19:00.401Z,1.83
2023-02-19T14:21:40.340Z,1.60
2023-02-19T14:24:14.420Z,1.90
2023-02-19T14:26:42.112Z,1.98
2023-02-19T14:29:14.750Z,1.77
2023-02-19T14:31:45.986Z,1.80
2023-02-19T14:34:25.069Z,1.83
2023-02-19T14:37:01.582Z,1.38
2023-02-19T14:39:37.791Z,1.30
2023-02-19T14:42:27.023Z,2.03
2023-02-19T14:44:59.506Z,1.50
2023-02-19T14:47:30.898Z,1.00
2023-02-19T14:50:14.332Z,0.85
2023-02-19T14:52:47.897Z,0.82
2023-02-19T14:55:30.435Z,0.90
2023-02-19T14:58:01.200Z,0.90
2023-02-19T15:00:39.155Z,0.90
2023-02-19T15:03:22.643Z,0.93
2023-02-19T15:06:17.846Z,0.77
2023-02-19T15:08:50.688Z,1.17
2023-02-19T15:11:32.257Z,1.38
2023-02-19T15:14:04.879Z,3.03
2023-02-19T15:16:35.632Z,2.10
2023-02-19T15:19:08.749Z,1.65
2023-02-19T15:21:44.413Z,2.38
2023-02-19T15:24:15.095Z,3.00
2023-02-19T15:26:46.906Z,3.75
2023-02-19T15:29:27.416Z,3.25
2023-02-19T15:32:01.204Z,2.10
2023-02-19T15:34:31.655Z,1.30
2023-02-19T15:37:06.914Z,1.35
2023-02-19T15:39:46.515Z,1.20
2023-02-19T15:42:23.048Z,1.25
2023-02-19T15:45:19.624Z,1.55
2023-02-19T15:47:56.128Z,1.45
2023-02-19T15:50:29.961Z,1.20
2023-02-19T15:53:30.126Z,1.75
2023-02-19T15:56:28.268Z,1.27
2023-02-19T15:59:04.187Z,1.20
2023-02-19T16:01:40.943Z,1.50
2023-02-19T16:04:17.498Z,1.88
2023-02-19T16:06:58.936Z,3.00
2023-02-19T16:09:37.787Z,3.50
2023-02-19T16:12:24.258Z,3.22
2023-02-19T16:14:51.209Z,4.15
2023-02-19T16:17:23.003Z,3.38
2023-02-19T16:20:03.442Z,3.80
2023-02-19T16:22:40.302Z,3.33
2023-02-19T16:25:21.296Z,4.10
2023-02-19T16:27:48.237Z,3.78
2023-02-19T16:30:25.238Z,3.35
2023-02-19T16:33:20.521Z,3.40
2023-02-19T16:35:49.507Z,3.20
2023-02-19T16:38:19.007Z,2.70
2023-02-19T16:41:10.946Z,2.83
2023-02-19T16:43:43.627Z,2.15
2023-02-19T16:46:12.825Z,2.50
2023-02-19T16:48:40.065Z,2.75
2023-02-19T16:51:08.913Z,2.30
2023-02-19T16:53:35.904Z,3.72
2023-02-19T16:56:02.781Z,3.15
2023-02-19T16:58:29.635Z,1.95
2023-02-19T17:00:57.315Z,1.40
2023-02-19T17:03:25.493Z,1.60
2023-02-19T17:05:53.192Z,1.20
2023-02-19T17:08:42.311Z,1.25
2023-02-19T17:11:15.835Z,1.27
2023-02-19T17:13:47.470Z,1.33
2023-02-19T17:16:27.146Z,1.33
2023-02-19T17:18:55.636Z,1.60
2023-02-19T17:21:31.823Z,2.05
2023-02-19T17:23:58.585Z,2.70
2023-02-19T17:26:29.047Z,2.45
2023-02-19T17:29:04.207Z,2.08
2023-02-19T17:31:31.109Z,2.03
2023-02-19T17:33:58.924Z,1.80
2023-02-19T17:36:31.449Z,1.90
2023-02-19T17:39:00.200Z,2.17
2023-02-19T17:41:27.920Z,1.48
2023-02-19T17:43:55.440Z,1.42
2023-02-19T17:46:25.733Z,1.45
2023-02-19T17:48:53.920Z,1.30
2023-02-19T17:51:21.865Z,1.75
2023-02-19T17:53:48.753Z,1.70
2023-02-19T17:56:22.516Z,1.30
2023-02-19T17:58:49.999Z,1.00
2023-02-19T18:01:16.888Z,1.50
2023-02-19T18:03:44.446Z,2.80
2023-02-19T18:06:11.951Z,2.85
2023-02-19T18:08:39.368Z,1.70
2023-02-19T18:11:07.730Z,1.20
2023-02-19T18:13:34.682Z,1.13
2023-02-19T18:16:01.592Z,1.00
2023-02-19T18:18:28.449Z,1.10
2023-02-19T18:20:55.223Z,1.30
2023-02-19T18:23:22.024Z,1.98
2023-02-19T18:25:48.785Z,1.40
2023-02-19T18:28:15.966Z,1.20
2023-02-19T18:30:42.916Z,7.18
2023-02-19T18:33:13.344Z,5.35
2023-02-19T18:35:40.575Z,2.90
2023-02-19T18:38:07.555Z,2.10
2023-02-19T18:40:35.237Z,1.90
2023-02-19T18:43:02.080Z,1.52
2023-02-19T18:45:29.582Z,1.33
2023-02-19T18:47:56.486Z,1.52
2023-02-19T18:50:23.377Z,2.17
2023-02-19T18:52:50.253Z,1.40
2023-02-19T18:55:17.243Z,1.65
2023-02-19T18:57:45.146Z,1.38
2023-02-19T19:00:22.730Z,1.45
2023-02-19T19:02:50.604Z,1.35
2023-02-19T19:05:22.730Z,1.50
2023-02-19T19:07:59.037Z,1.40
2023-02-19T19:10:27.945Z,1.20
2023-02-19T19:12:54.832Z,1.30
2023-02-19T19:15:22.708Z,1.27
2023-02-19T19:17:49.901Z,1.52
2023-02-19T19:20:22.937Z,1.35
2023-02-19T19:22:52.120Z,1.52
2023-02-19T19:25:21.342Z,1.45
2023-02-19T19:27:50.642Z,1.42
2023-02-19T19:30:19.921Z,1.50
2023-02-19T19:32:52.444Z,1.58
2023-02-19T19:35:21.342Z,1.50
2023-02-19T19:37:48.810Z,1.60
2023-02-19T19:40:17.690Z,2.67
2023-02-19T19:42:44.796Z,5.38
2023-02-19T19:45:12.430Z,3.17
2023-02-19T19:47:39.341Z,4.50
2023-02-19T19:50:06.594Z,5.20
2023-02-19T19:52:33.457Z,4.30
2023-02-19T19:55:00.388Z,4.72
2023-02-19T19:57:27.197Z,4.15
2023-02-19T19:59:54.041Z,3.03
2023-02-19T20:02:21.221Z,7.90
2023-02-19T20:04:48.159Z,4.05
2023-02-19T20:07:15.672Z,3.25
2023-02-19T20:09:47.070Z,2.70
2023-02-19T20:12:13.896Z,2.78
2023-02-19T20:14:45.891Z,2.42
2023-02-19T20:17:13.444Z,2.85
2023-02-19T20:19:40.460Z,3.38
2023-02-19T20:22:07.342Z,3.70
2023-02-19T20:24:34.246Z,3.47
2023-02-19T20:27:02.565Z,3.28
2023-02-19T20:29:33.006Z,3.70
2023-02-19T20:32:03.472Z,3.92
2023-02-19T20:34:31.727Z,4.78
2023-02-19T20:36:59.265Z,4.70
2023-02-19T20:39:29.136Z,4.78
2023-02-19T20:41:57.894Z,3.97
2023-02-19T20:44:27.138Z,4.43
2023-02-19T20:46:54.857Z,4.10
2023-02-19T20:49:26.193Z,11.63
2023-02-19T20:52:00.140Z,7.75
2023-02-19T20:54:33.356Z,6.72
2023-02-19T20:57:03.749Z,5.07
2023-02-19T20:59:35.355Z,4.50
2023-02-19T21:02:05.468Z,6.07
2023-02-19T21:04:33.337Z,6.90
2023-02-19T21:07:00.101Z,4.18
2023-02-19T21:09:26.875Z,4.80
2023-02-19T21:11:53.681Z,4.28
2023-02-19T21:14:20.798Z,4.72
2023-02-19T21:16:47.562Z,4.05
2023-02-19T21:19:14.404Z,3.60
2023-02-19T21:21:41.433Z,3.88
2023-02-19T21:24:12.872Z,3.53
2023-02-19T21:26:41.599Z,4.65
2023-02-19T21:29:12.983Z,3.30
2023-02-19T21:31:46.785Z,3.40
2023-02-19T21:34:18.370Z,3.40
2023-02-19T21:36:45.932Z,3.67
2023-02-19T21:39:16.529Z,4.40
2023-02-19T21:41:43.664Z,6.68
2023-02-19T21:44:11.009Z,6.72
2023-02-19T21:46:37.854Z,4.60
2023-02-19T21:49:04.780Z,6.20
2023-02-19T21:51:38.732Z,4.95
2023-02-19T21:54:08.310Z,3.17
2023-02-19T21:56:36.705Z,3.50
2023-02-19T21:59:04.124Z,3.13
2023-02-19T22:01:34.599Z,3.30
2023-02-19T22:04:01.729Z,3.33
2023-02-19T22:06:30.997Z,3.63
2023-02-19T22:08:59.272Z,8.48
2023-02-19T22:11:26.280Z,4.40
2023-02-19T22:13:53.535Z,3.55
2023-02-19T22:16:20.759Z,4.30
2023-02-19T22:18:54.237Z,3.97
2023-02-19T22:21:24.590Z,3.47
2023-02-19T22:23:53.585Z,3.50
2023-02-19T22:26:35.498Z,3.72
2023-02-19T22:29:08.211Z,3.63
2023-02-19T22:31:36.022Z,4.10
2023-02-19T22:34:03.332Z,3.65
2023-02-19T22:36:33.164Z,4.00
2023-02-19T22:39:01.331Z,4.15
2023-02-19T22:41:28.442Z,4.60
2023-02-19T22:43:56.190Z,4.88
2023-02-19T22:46:27.033Z,4.20
2023-02-19T22:48:53.836Z,4.90
2023-02-19T22:51:23.463Z,5.03
2023-02-19T22:53:56.478Z,4.85
2023-02-19T22:56:27.446Z,5.28
2023-02-19T22:58:56.394Z,4.85
2023-02-19T23:01:24.345Z,4.65
2023-02-19T23:03:55.426Z,4.65
2023-02-19T23:06:29.833Z,5.13
2023-02-19T23:09:10.619Z,4.90
2023-02-19T23:11:39.600Z,5.80
2023-02-19T23:14:07.190Z,5.35
2023-02-19T23:16:37.658Z,5.63
2023-02-19T23:19:07.344Z,5.15
2023-02-19T23:21:34.378Z,5.85
2023-02-19T23:24:02.116Z,6.07
2023-02-19T23:26:28.981Z,6.15
2023-02-19T23:28:56.251Z,6.82
2023-02-19T23:31:23.797Z,7.05
2023-02-19T23:33:50.701Z,6.90
2023-02-19T23:36:17.534Z,7.47
2023-02-19T23:38:47.761Z,6.65
2023-02-19T23:41:17.180Z,6.43
2023-02-19T23:43:44.522Z,7.68
2023-02-19T23:46:17.794Z,7.65
2023-02-19T23:48:46.062Z,7.65
2023-02-19T23:51:13.885Z,7.30
2023-02-19T23:53:40.878Z,7.30
2023-02-19T23:56:07.889Z,7.35
2023-02-19T23:58:34.738Z,7.18
